Time;durP1;ratioP1;P1;durP2;ratioP2;P2;SDS_P1;SDS_P2;PMS_P1;PMS_P2;Temp;Humidity;BMP_temperature;BMP_pressure;BME280_temperature;BME280_humidity;BME280_pressure;Samples;Min_cycle;Max_cycle;Signal;HPM_P1;HPM_P2
2022/08/01 00:01:58;;;;;;;26.17;17.53;;;;;;;16.88;100.00;100491.53;7383504;19;20409;-61
2022/08/01 00:04:28;;;;;;;26.50;17.43;;;;;;;16.85;100.00;100498.44;7390538;19;20391;-61
2022/08/01 00:06:57;;;;;;;25.20;17.20;;;;;;;16.87;100.00;100502.81;7382174;19;20538;-57
2022/08/01 00:09:27;;;;;;;25.17;17.73;;;;;;;16.88;100.00;100499.34;7391282;19;20392;-57
2022/08/01 00:11:57;;;;;;;24.67;16.77;;;;;;;16.87;100.00;100504.56;7383338;19;20420;-60
2022/08/01 00:14:28;;;;;;;25.80;17.53;;;;;;;16.86;100.00;100508.88;7391185;19;20940;-61
2022/08/01 00:17:03;;;;;;;24.27;17.37;;;;;;;16.83;100.00;100508.84;7382338;19;20914;-61
2022/08/01 00:19:36;;;;;;;25.97;18.67;;;;;;;16.85;100.00;100512.34;7391777;19;20475;-60
2022/08/01 00:22:06;;;;;;;22.80;16.87;;;;;;;16.87;100.00;100508.03;7383646;19;20409;-58
2022/08/01 00:24:36;;;;;;;24.03;17.83;;;;;;;16.84;100.00;100502.78;7392031;19;20912;-57
2022/08/01 00:27:06;;;;;;;26.20;17.70;;;;;;;16.84;100.00;100512.31;7382178;19;20426;-60
2022/08/01 00:29:35;;;;;;;23.50;16.60;;;;;;;16.86;100.00;100510.59;7392139;19;20398;-61
2022/08/01 00:32:28;;;;;;;25.10;17.53;;;;;;;16.81;100.00;100507.94;7384408;19;20412;-61
2022/08/01 00:34:57;;;;;;;25.17;17.43;;;;;;;16.83;100.00;100508.84;7390792;19;20390;-60
2022/08/01 00:37:27;;;;;;;28.20;16.73;;;;;;;16.77;100.00;100521.78;7380269;19;20442;-59
2022/08/01 00:39:57;;;;;;;28.03;17.43;;;;;;;16.81;100.00;100517.50;7390484;19;20744;-60
2022/08/01 00:42:26;;;;;;;26.10;18.20;;;;;;;16.80;100.00;100518.34;7384333;19;20436;-60
2022/08/01 00:44:56;;;;;;;27.70;16.57;;;;;;;16.81;100.00;100509.69;7390393;19;20845;-61
2022/08/01 00:47:28;;;;;;;26.67;17.10;;;;;;;16.79;100.00;100512.28;7381270;19;20410;-59
2022/08/01 00:49:57;;;;;;;27.40;17.10;;;;;;;16.80;100.00;100515.75;7391443;19;20380;-59
2022/08/01 00:52:27;;;;;;;30.13;17.07;;;;;;;16.78;100.00;100505.31;7383574;19;20422;-58
2022/08/01 00:54:57;;;;;;;24.87;16.23;;;;;;;16.79;100.00;100514.88;7390785;19;20394;-59
2022/08/01 00:57:26;;;;;;;24.40;15.20;;;;;;;16.79;100.00;100501.84;7382680;19;20416;-59
2022/08/01 01:00:17;;;;;;;31.73;16.40;;;;;;;16.87;100.00;100508.03;7390742;19;20390;-56
2022/08/01 01:02:49;;;;;;;27.63;15.83;;;;;;;16.81;100.00;100504.50;7383986;19;20412;-59
2022/08/01 01:05:18;;;;;;;24.53;15.47;;;;;;;16.82;100.00;100499.28;7390197;19;20920;-58
2022/08/01 01:07:52;;;;;;;23.13;14.83;;;;;;;16.90;100.00;100506.31;7383206;19;20412;-60
2022/08/01 01:10:25;;;;;;;27.73;16.40;;;;;;;16.85;100.00;100504.53;7386269;19;20404;-60
2022/08/01 01:13:05;;;;;;;23.53;15.57;;;;;;;16.81;100.00;100507.94;7388709;19;20420;-60
2022/08/01 01:15:39;;;;;;;22.47;15.73;;;;;;;16.79;100.00;100512.28;7397884;19;20421;-60
2022/08/01 01:18:14;;;;;;;26.90;14.90;;;;;;;16.78;100.00;100520.06;7392565;19;20763;-57
2022/08/01 01:20:47;;;;;;;24.80;15.20;;;;;;;16.76;100.00;100517.44;7398828;19;20393;-60
2022/08/01 01:23:32;;;;;;;27.30;15.57;;;;;;;16.75;100.00;100523.50;7392437;19;20490;-59
2022/08/01 01:26:12;;;;;;;24.00;14.77;;;;;;;16.74;100.00;100519.16;7396965;19;20422;-57
2022/08/01 01:29:01;;;;;;;22.23;14.20;;;;;;;16.72;100.00;100521.72;7391889;19;20434;-60
2022/08/01 01:31:31;;;;;;;25.17;15.97;;;;;;;16.78;100.00;100515.75;7390514;19;20382;-58
2022/08/01 01:34:02;;;;;;;25.70;15.13;;;;;;;16.76;100.00;100527.84;7398781;19;20405;-60
2022/08/01 01:36:33;;;;;;;27.23;16.10;;;;;;;16.78;100.00;100520.97;7389158;19;20428;-57
2022/08/01 01:39:03;;;;;;;29.60;16.53;;;;;;;16.76;100.00;100517.44;7397785;19;20393;-60
2022/08/01 01:41:33;;;;;;;24.10;15.00;;;;;;;16.78;100.00;100523.56;7390299;19;20386;-59
2022/08/01 01:44:07;;;;;;;24.37;14.73;;;;;;;16.77;100.00;100529.59;7397174;19;20734;-59
2022/08/01 01:46:38;;;;;;;28.30;15.60;;;;;;;16.86;100.00;100526.22;7389011;19;20411;-59
2022/08/01 01:49:09;;;;;;;28.17;15.60;;;;;;;16.78;100.00;100523.56;7397336;19;20402;-59
2022/08/01 01:51:39;;;;;;;21.40;13.30;;;;;;;16.72;100.00;100526.94;7391046;19;20381;-61
2022/08/01 01:54:11;;;;;;;25.40;14.80;;;;;;;16.78;100.00;100526.16;7396854;19;20385;-59
2022/08/01 01:56:48;;;;;;;56.80;27.87;;;;;;;16.89;100.00;100534.09;7391340;19;20422;-61
2022/08/01 01:59:23;;;;;;;38.13;18.20;;;;;;;16.84;100.00;100535.78;7397600;19;20384;-60
2022/08/01 02:01:55;;;;;;;24.40;15.70;;;;;;;16.82;100.00;100533.13;7390452;19;20413;-60
2022/08/01 02:04:35;;;;;;;23.17;13.90;;;;;;;16.82;100.00;100533.13;7396589;19;20399;-61
2022/08/01 02:07:05;;;;;;;27.07;14.97;;;;;;;16.83;100.00;100540.09;7389525;19;20421;-60
2022/08/01 02:09:36;;;;;;;24.07;13.17;;;;;;;16.81;100.00;100544.41;7397328;19;20629;-60
2022/08/01 02:12:08;;;;;;;25.30;14.57;;;;;;;16.84;100.00;100547.09;7386963;19;20765;-58
2022/08/01 02:14:41;;;;;;;49.23;29.00;;;;;;;16.83;100.00;100529.69;7396208;19;20390;-59
2022/08/01 02:17:13;;;;;;;29.10;17.20;;;;;;;16.90;100.00;100534.97;7387627;19;20410;-60
2022/08/01 02:19:42;;;;;;;25.60;15.93;;;;;;;16.86;100.00;100539.25;7396933;19;20912;-59
2022/08/01 02:22:13;;;;;;;25.70;14.87;;;;;;;16.81;100.00;100534.00;7389738;19;20414;-61
2022/08/01 02:24:47;;;;;;;25.33;16.13;;;;;;;16.82;100.00;100534.88;7395128;19;20402;-61
2022/08/01 02:27:19;;;;;;;25.40;15.40;;;;;;;16.75;100.00;100536.53;7388856;19;20401;-60
2022/08/01 02:29:57;;;;;;;22.00;14.60;;;;;;;16.77;100.00;100540.00;7400108;19;20392;-61
2022/08/01 02:32:30;;;;;;;26.13;14.50;;;;;;;16.79;100.00;100537.44;7388642;19;20430;-61
2022/08/01 02:35:00;;;;;;;19.23;13.93;;;;;;;16.76;100.00;100543.47;7395822;19;20396;-59
2022/08/01 02:37:31;;;;;;;23.80;14.87;;;;;;;16.85;100.00;100538.41;7388743;19;20427;-61
2022/08/01 02:40:02;;;;;;;19.77;14.03;;;;;;;16.77;100.00;100534.81;7395995;19;20399;-61
2022/08/01 02:42:32;;;;;;;19.20;13.40;;;;;;;16.72;100.00;100534.75;7389458;19;20428;-60
2022/08/01 02:45:05;;;;;;;27.37;15.17;;;;;;;16.74;100.00;100526.97;7395624;19;20916;-60
2022/08/01 02:47:35;;;;;;;22.90;14.50;;;;;;;16.69;100.00;100533.84;7387308;19;20412;-61
2022/08/01 02:50:07;;;;;;;27.80;13.30;;;;;;;16.70;100.00;100528.66;7395925;19;20395;-59
2022/08/01 02:52:38;;;;;;;21.20;13.93;;;;;;;16.67;100.00;100531.22;7388753;19;20422;-61
2022/08/01 02:55:09;;;;;;;20.07;13.30;;;;;;;16.77;100.00;100541.75;7394807;19;20741;-60
2022/08/01 02:57:40;;;;;;;22.90;13.30;;;;;;;16.70;100.00;100532.97;7385968;19;20402;-61
2022/08/01 03:00:24;;;;;;;19.33;12.90;;;;;;;16.73;100.00;100540.84;7395309;19;20427;-60
2022/08/01 03:02:55;;;;;;;20.90;13.37;;;;;;;16.76;100.00;100542.63;7388177;19;20428;-61
2022/08/01 03:05:27;;;;;;;22.27;13.90;;;;;;;16.70;100.00;100535.59;7394516;19;20395;-61
2022/08/01 03:07:58;;;;;;;18.00;14.80;;;;;;;16.67;100.00;100533.81;7387060;19;20492;-61
2022/08/01 03:10:33;;;;;;;20.77;14.37;;;;;;;16.62;100.00;100545.03;7394968;19;20403;-61
2022/08/01 03:13:04;;;;;;;23.40;13.40;;;;;;;16.58;100.00;100550.22;7385587;19;20421;-61
2022/08/01 03:15:39;;;;;;;20.47;12.67;;;;;;;16.60;100.00;100540.69;7394055;19;20920;-59
2022/08/01 03:18:11;;;;;;;23.67;12.87;;;;;;;16.58;100.00;100550.22;7387963;19;20411;-61
2022/08/01 03:20:41;;;;;;;24.23;13.60;;;;;;;16.59;100.00;100554.56;7394498;19;20394;-60
2022/08/01 03:23:12;;;;;;;24.37;13.80;;;;;;;16.62;100.00;100555.47;7386050;19;20942;-60
2022/08/01 03:25:44;;;;;;;19.23;12.23;;;;;;;16.57;100.00;100551.06;7393647;19;20389;-58
2022/08/01 03:28:16;;;;;;;19.63;13.57;;;;;;;16.61;100.00;100554.56;7386784;19;20412;-60
2022/08/01 03:30:49;;;;;;;17.50;13.30;;;;;;;16.63;100.00;100559.81;7394258;19;21038;-61
2022/08/01 03:33:19;;;;;;;23.40;13.47;;;;;;;16.69;100.00;100567.72;7387213;19;20768;-61
2022/08/01 03:35:51;;;;;;;15.63;11.97;;;;;;;16.64;100.00;100564.16;7390652;19;20749;-58
2022/08/01 03:38:24;;;;;;;18.87;12.07;;;;;;;16.63;100.00;100567.63;7387487;19;20420;-58
2022/08/01 03:40:56;;;;;;;22.20;12.47;;;;;;;16.55;100.00;100564.91;7394305;19;20390;-59
2022/08/01 03:43:31;;;;;;;16.87;12.40;;;;;;;16.70;100.00;100564.25;7386234;19;20793;-61
2022/08/01 03:46:08;;;;;;;19.07;11.90;;;;;;;16.78;100.00;100557.44;7396741;19;20492;-61
2022/08/01 03:48:40;;;;;;;19.60;11.53;;;;;;;16.77;100.00;100550.44;7386179;19;20430;-61
2022/08/01 03:51:12;;;;;;;19.20;13.00;;;;;;;16.65;100.00;100558.09;7393883;19;20386;-58
2022/08/01 03:53:44;;;;;;;17.23;11.50;;;;;;;16.66;100.00;100557.25;7383370;19;20431;-61
2022/08/01 03:56:15;;;;;;;14.50;11.00;;;;;;;16.69;100.00;100552.97;7392417;19;20751;-57
2022/08/01 03:58:45;;;;;;;20.50;13.67;;;;;;;16.70;100.00;100557.31;7386989;19;20432;-60
2022/08/01 04:01:21;;;;;;;15.30;11.83;;;;;;;16.68;100.00;100550.34;7393548;19;20394;-59
2022/08/01 04:03:51;;;;;;;35.93;21.97;;;;;;;16.69;100.00;100549.47;7385544;19;20458;-60
2022/08/01 04:06:21;;;;;;;21.03;13.20;;;;;;;16.63;100.00;100547.69;7393615;19;20428;-61
2022/08/01 04:08:57;;;;;;;19.93;10.47;;;;;;;16.69;100.00;100552.97;7386854;19;20418;-60
2022/08/01 04:11:29;;;;;;;13.00;10.97;;;;;;;16.65;100.00;100566.78;7390148;19;20396;-61
2022/08/01 04:13:59;;;;;;;18.43;11.30;;;;;;;16.63;100.00;100565.91;7390324;19;20421;-60
2022/08/01 04:16:31;;;;;;;14.20;8.73;;;;;;;16.56;100.00;100562.31;7384285;19;20411;-59
2022/08/01 04:19:01;;;;;;;13.53;10.40;;;;;;;16.54;100.00;100566.66;7392095;19;20406;-61
2022/08/01 04:21:32;;;;;;;13.07;9.70;;;;;;;16.50;100.00;100577.88;7385811;19;20397;-61
2022/08/01 04:24:05;;;;;;;12.13;9.87;;;;;;;16.55;100.00;100580.53;7391629;19;20398;-58
2022/08/01 04:26:35;;;;;;;13.33;9.57;;;;;;;16.56;100.00;100588.38;7385911;19;20499;-60
2022/08/01 04:29:06;;;;;;;12.57;8.63;;;;;;;16.53;100.00;100588.34;7394889;19;20956;-58
2022/08/01 04:31:39;;;;;;;13.83;8.73;;;;;;;16.52;100.00;100602.22;7385940;19;20927;-58
2022/08/01 04:34:09;;;;;;;12.23;8.40;;;;;;;16.56;100.00;100604.00;7389824;19;20392;-59
2022/08/01 04:36:41;;;;;;;11.73;8.50;;;;;;;16.56;100.00;100604.00;7381758;19;20419;-60
2022/08/01 04:39:11;;;;;;;10.60;7.67;;;;;;;16.57;100.00;100603.13;7392298;19;20404;-60
2022/08/01 04:41:41;;;;;;;16.87;7.90;;;;;;;16.54;100.00;100616.13;7384368;19;20388;-59
2022/08/01 04:44:11;;;;;;;11.33;7.23;;;;;;;16.51;100.00;100605.66;7391361;19;20397;-59
2022/08/01 04:46:43;;;;;;;9.87;7.53;;;;;;;16.49;100.00;100617.78;7386608;19;21034;-60
2022/08/01 04:49:16;;;;;;;13.23;9.80;;;;;;;16.49;100.00;100619.50;7399846;19;20471;-60
2022/08/01 04:51:57;;;;;;;12.90;8.30;;;;;;;16.47;100.00;100620.34;7392334;19;20940;-59
2022/08/01 04:54:27;;;;;;;28.23;17.27;;;;;;;16.52;100.00;100627.38;7396733;19;20852;-61
2022/08/01 04:56:59;;;;;;;14.30;7.60;;;;;;;16.63;100.00;100637.94;7389156;19;20408;-61
2022/08/01 05:02:15;;;;;;;13.60;9.40;;;;;;;16.60;100.00;100642.25;7392955;19;20415;-60
2022/08/01 05:04:45;;;;;;;9.30;6.63;;;;;;;16.51;100.00;100639.50;7398758;19;20390;-60
2022/08/01 05:07:15;;;;;;;12.60;6.80;;;;;;;16.48;100.00;100642.06;7389447;19;20931;-60
2022/08/01 05:09:45;;;;;;;26.40;19.13;;;;;;;16.68;100.00;100638.88;7399051;19;20387;-60
2022/08/01 05:12:15;;;;;;;17.80;13.00;;;;;;;16.81;100.00;100630.38;7390915;19;20425;-61
2022/08/01 05:14:45;;;;;;;14.63;10.27;;;;;;;16.78;100.00;100619.94;7398416;19;20730;-61
2022/08/01 05:17:17;;;;;;;5.67;4.93;;;;;;;16.65;100.00;100616.28;7390753;19;20409;-59
2022/08/01 05:19:47;;;;;;;7.37;6.00;;;;;;;16.57;100.00;100620.50;7398849;19;20396;-61
2022/08/01 05:22:16;;;;;;;9.83;6.90;;;;;;;16.69;100.00;100622.41;7390248;19;20411;-61
2022/08/01 05:24:46;;;;;;;26.63;16.63;;;;;;;16.77;100.00;100627.72;7397882;19;20396;-61
2022/08/01 05:27:17;;;;;;;7.13;5.60;;;;;;;16.67;100.00;100624.97;7386599;19;20414;-60
2022/08/01 05:29:47;;;;;;;8.50;5.03;;;;;;;16.78;100.00;100622.56;7398436;19;20383;-60
2022/08/01 05:32:20;;;;;;;7.10;4.80;;;;;;;16.78;100.00;100627.75;7390742;19;20420;-61
2022/08/01 05:34:50;;;;;;;15.90;10.17;;;;;;;16.77;100.00;100618.16;7394867;19;20731;-61
2022/08/01 05:37:20;;;;;;;12.33;6.60;;;;;;;16.77;100.00;100615.56;7389070;19;20461;-61
2022/08/01 05:39:49;;;;;;;17.20;12.27;;;;;;;16.70;100.00;100612.00;7397995;19;20453;-59
2022/08/01 05:42:19;;;;;;;12.33;6.80;;;;;;;16.78;100.00;100619.94;7389229;19;20422;-61
2022/08/01 05:44:50;;;;;;;27.73;12.60;;;;;;;16.98;100.00;100616.72;7397345;19;20402;-62
2022/08/01 05:47:22;;;;;;;17.27;9.53;;;;;;;16.93;100.00;100618.41;7389898;19;20403;-60
2022/08/01 05:49:51;;;;;;;5.87;3.70;;;;;;;16.76;100.00;100621.63;7398710;19;20390;-60
2022/08/01 05:52:21;;;;;;;7.77;4.20;;;;;;;16.74;100.00;100628.56;7391279;19;20513;-61
2022/08/01 05:54:51;;;;;;;6.60;4.00;;;;;;;16.74;100.00;100634.66;7394410;19;20389;-60
2022/08/01 05:57:20;;;;;;;8.27;3.87;;;;;;;16.78;100.00;100637.28;7387607;19;20418;-61
2022/08/01 05:59:51;;;;;;;5.67;3.80;;;;;;;16.82;100.00;100639.09;7396964;19;20401;-58
2022/08/01 06:02:23;;;;;;;9.27;4.30;;;;;;;16.80;100.00;100646.88;7388912;19;20409;-60
2022/08/01 06:04:52;;;;;;;7.73;4.57;;;;;;;16.88;100.00;100652.22;7396546;19;20392;-57
2022/08/01 06:07:22;;;;;;;8.77;4.57;;;;;;;16.81;100.00;100658.19;7389273;19;20442;-62
2022/08/01 06:09:51;;;;;;;7.47;4.03;;;;;;;16.78;100.00;100664.22;7397037;19;20399;-60
2022/08/01 06:12:21;;;;;;;9.63;4.00;;;;;;;16.72;100.00;100672.81;7390830;19;20481;-61
2022/08/01 06:14:51;;;;;;;11.07;4.37;;;;;;;16.62;100.00;100676.16;7394256;19;20468;-61
2022/08/01 06:17:23;;;;;;;7.00;4.40;;;;;;;16.68;100.00;100688.38;7388345;19;20405;-60
2022/08/01 06:19:53;;;;;;;8.87;4.47;;;;;;;16.68;100.00;100696.19;7396775;19;20385;-60
2022/08/01 06:22:22;;;;;;;17.97;4.97;;;;;;;16.55;100.00;100696.00;7388475;19;20417;-61
2022/08/01 06:24:52;;;;;;;11.67;4.40;;;;;;;16.48;100.00;100709.78;7395684;19;20420;-59
2022/08/01 06:27:24;;;;;;;9.30;4.83;;;;;;;16.40;100.00;100716.59;7389899;19;20471;-61
2022/08/01 06:29:54;;;;;;;16.23;5.30;;;;;;;16.42;100.00;100733.09;7398206;19;20395;-54
2022/08/01 06:32:27;;;;;;;12.20;4.70;;;;;;;16.39;100.00;100741.72;7389539;19;20415;-59
2022/08/01 06:34:57;;;;;;;21.00;4.60;;;;;;;16.40;100.00;100758.25;7393710;19;20770;-59
2022/08/01 06:37:30;;;;;;;9.60;4.80;;;;;;;16.42;100.00;100769.56;7388513;19;20424;-61
2022/08/01 06:40:03;;;;;;;18.37;5.40;;;;;;;16.41;100.00;100780.81;7396083;19;20393;-60
2022/08/01 06:42:35;;;;;;;11.40;5.00;;;;;;;16.39;100.00;100783.38;7389201;19;20408;-60
2022/08/01 06:45:05;;;;;;;18.00;5.43;;;;;;;16.41;100.00;100786.03;7395269;19;20466;-59
2022/08/01 06:47:37;;;;;;;10.13;4.40;;;;;;;16.39;100.00;100799.00;7386845;19;20411;-59
2022/08/01 06:50:08;;;;;;;12.17;5.80;;;;;;;16.44;100.00;100801.69;7395920;19;20406;-60
2022/08/01 06:52:40;;;;;;;12.43;5.30;;;;;;;16.48;100.00;100808.72;7389284;19;20412;-59
2022/08/01 06:55:11;;;;;;;11.83;5.47;;;;;;;16.57;100.00;100813.22;7393001;19;20428;-58
2022/08/01 06:57:50;;;;;;;10.90;5.27;;;;;;;16.63;100.00;100828.97;7389562;19;20417;-59
2022/08/01 07:00:22;;;;;;;15.77;8.37;;;;;;;16.64;100.00;100840.25;7395454;19;20412;-60
2022/08/01 07:02:55;;;;;;;12.70;7.50;;;;;;;16.66;100.00;100859.41;7384850;19;20440;-59
2022/08/01 07:05:25;;;;;;;11.03;7.37;;;;;;;16.49;100.00;100877.28;7398203;19;20396;-60
2022/08/01 07:07:55;;;;;;;25.73;9.83;;;;;;;16.43;100.00;100899.78;7390513;19;20451;-60
2022/08/01 07:10:25;;;;;;;21.57;8.60;;;;;;;16.38;100.00;100943.06;7395739;19;20410;-59
2022/08/01 07:12:55;;;;;;;18.57;9.43;;;;;;;16.36;100.00;100965.56;7387344;19;20430;-59
2022/08/01 07:15:26;;;;;;;10.63;7.27;;;;;;;16.42;100.00;100986.53;7391626;19;20428;-60
2022/08/01 07:18:01;;;;;;;17.53;7.30;;;;;;;16.44;100.00;101002.19;7386748;19;20967;-60
2022/08/01 07:20:30;;;;;;;22.23;7.17;;;;;;;16.45;100.00;101028.28;7394778;19;20400;-58
2022/08/01 07:23:18;;;;;;;24.60;8.20;;;;;;;16.37;100.00;101044.56;7389499;19;20446;-59
2022/08/01 07:25:58;;;;;;;21.17;7.80;;;;;;;16.26;100.00;101058.22;7393244;19;20441;-61
2022/08/01 07:28:29;;;;;;;18.70;7.60;;;;;;;16.28;100.00;101076.47;7386621;19;20436;-59
2022/08/01 07:30:59;;;;;;;23.43;7.57;;;;;;;16.32;100.00;101080.91;7394533;19;20395;-60
2022/08/01 07:33:31;;;;;;;20.17;6.50;;;;;;;16.29;100.00;101079.13;7387739;19;20431;-59
2022/08/01 07:36:17;;;;;;;17.97;7.00;;;;;;;16.28;100.00;101103.41;7393078;19;21007;-59
2022/08/01 07:38:47;;;;;;;17.40;6.20;;;;;;;16.30;100.00;101101.72;7384089;19;20416;-60
2022/08/01 07:41:16;;;;;;;24.40;7.03;;;;;;;16.40;100.00;101125.38;7393374;19;20913;-59
2022/08/01 07:43:47;;;;;;;20.10;6.33;;;;;;;16.39;100.00;101132.28;7385697;19;20513;-61
2022/08/01 07:46:27;;;;;;;19.13;6.50;;;;;;;16.36;100.00;101142.63;7390952;19;20423;-61
2022/08/01 07:48:59;;;;;;;20.40;5.67;;;;;;;16.38;100.00;101146.16;7395287;19;20435;-58
2022/08/01 07:51:28;;;;;;;22.03;6.70;;;;;;;16.32;100.00;101172.91;7380738;19;20392;-60
2022/08/01 07:53:58;;;;;;;13.00;5.43;;;;;;;16.31;100.00;101186.78;7392157;19;20389;-59
2022/08/01 07:56:28;;;;;;;19.53;5.60;;;;;;;16.38;100.00;101192.13;7386419;19;20410;-62
2022/08/01 07:58:57;;;;;;;24.00;6.90;;;;;;;16.35;100.00;101200.75;7393078;19;20391;-60
2022/08/01 08:01:27;;;;;;;14.47;5.40;;;;;;;16.42;100.00;101204.41;7389003;19;20393;-62
2022/08/01 08:03:59;;;;;;;13.90;5.10;;;;;;;16.48;100.00;101214.97;7390691;19;20422;-58
2022/08/01 08:06:28;;;;;;;26.27;6.27;;;;;;;16.37;100.00;101216.41;7384826;19;20400;-60
2022/08/01 08:08:58;;;;;;;47.27;13.47;;;;;;;16.32;100.00;101224.13;7392557;19;20383;-60
2022/08/01 08:11:28;;;;;;;29.50;8.43;;;;;;;16.36;100.00;101230.28;7383484;19;20395;-63
2022/08/01 08:13:58;;;;;;;10.07;4.23;;;;;;;16.23;100.00;101239.47;7391663;19;20951;-60
2022/08/01 08:16:28;;;;;;;19.07;5.83;;;;;;;16.17;100.00;101240.22;7383964;19;20414;-62
2022/08/01 08:19:00;;;;;;;11.90;5.13;;;;;;;16.22;100.00;101250.75;7392250;19;20382;-56
2022/08/01 08:21:30;;;;;;;12.60;5.33;;;;;;;16.16;100.00;101262.75;7387488;19;20405;-60
2022/08/01 08:26:41;;;;;;;15.60;4.60;;;;;;;16.01;100.00;101262.34;7392124;19;20843;-60
2022/08/01 08:29:11;;;;;;;12.03;4.63;;;;;;;15.94;100.00;101253.47;7399903;19;20390;-61
2022/08/01 08:31:41;;;;;;;11.37;4.43;;;;;;;15.93;100.00;101269.94;7392519;19;20418;-61
2022/08/01 08:34:23;;;;;;;11.23;4.60;;;;;;;15.96;100.00;101274.34;7399343;19;20418;-60
2022/08/01 08:36:54;;;;;;;14.80;4.90;;;;;;;16.06;100.00;101269.44;7391232;19;20420;-61
2022/08/01 08:39:24;;;;;;;10.97;4.67;;;;;;;16.03;100.00;101273.66;7399650;19;20482;-59
2022/08/01 08:41:54;;;;;;;12.10;4.90;;;;;;;16.04;100.00;101283.22;7392277;19;20400;-60
2022/08/01 08:44:23;;;;;;;13.20;4.57;;;;;;;16.06;100.00;101285.03;7399308;19;20394;-57
2022/08/01 08:46:55;;;;;;;14.73;4.27;;;;;;;16.28;100.00;101295.16;7390858;19;20409;-61
2022/08/01 08:49:30;;;;;;;10.53;4.00;;;;;;;16.41;100.00;101317.22;7399482;19;20385;-54
2022/08/01 08:52:05;;;;;;;11.33;4.57;;;;;;;16.65;100.00;101316.06;7390731;19;20416;-60
2022/08/01 08:54:38;;;;;;;10.80;3.80;;;;;;;16.73;100.00;101323.22;7398474;19;20399;-60
2022/08/01 08:57:10;;;;;;;10.50;3.80;;;;;;;16.80;100.00;101329.50;7391271;19;20447;-60
2022/08/01 08:59:40;;;;;;;8.70;3.87;;;;;;;16.95;100.00;101338.53;7398907;19;20438;-60
2022/08/01 09:02:11;;;;;;;20.90;3.70;;;;;;;17.06;100.00;101344.94;7392254;19;21140;-59
2022/08/01 09:04:44;;;;;;;12.30;3.70;;;;;;;17.21;100.00;101343.53;7398480;19;20943;-60
2022/08/01 09:07:14;;;;;;;16.30;3.90;;;;;;;17.29;100.00;101357.63;7390219;19;20439;-59
2022/08/01 09:09:43;;;;;;;6.00;3.10;;;;;;;17.13;100.00;101357.25;7397543;19;20374;-60
2022/08/01 09:12:19;;;;;;;13.37;4.27;;;;;;;17.15;100.00;101365.13;7391064;19;20429;-60
2022/08/01 09:14:49;;;;;;;8.50;3.27;;;;;;;17.27;100.00;101374.94;7397744;19;20394;-60
2022/08/01 09:17:19;;;;;;;15.10;3.60;;;;;;;17.41;100.00;101376.19;7396028;19;20476;-61
2022/08/01 09:19:54;;;;;;;15.60;4.03;;;;;;;17.49;100.00;101396.34;7388025;19;20435;-60
2022/08/01 09:22:26;;;;;;;9.33;3.70;;;;;;;17.61;100.00;101399.22;7399669;19;20400;-60
2022/08/01 09:25:00;;;;;;;40.00;10.53;;;;;;;17.80;100.00;101407.47;7390772;19;20430;-60
2022/08/01 09:27:30;;;;;;;17.70;3.90;;;;;;;17.66;100.00;101421.09;7395942;19;20433;-62
2022/08/01 09:30:11;;;;;;;23.03;6.33;;;;;;;17.76;100.00;101426.50;7390429;19;20578;-60
2022/08/01 09:32:56;;;;;;;13.27;3.37;;;;;;;17.85;100.00;101439.78;7395374;19;20401;-61
2022/08/01 09:35:31;;;;;;;8.27;3.30;;;;;;;17.86;100.00;101444.16;7386714;19;20429;-60
2022/08/01 09:38:16;;;;;;;14.90;3.80;;;;;;;17.98;100.00;101437.41;7385884;19;20403;-61
2022/08/01 09:40:50;;;;;;;10.03;2.90;;;;;;;17.94;100.00;101458.25;7399989;19;20393;-61
2022/08/01 09:43:21;;;;;;;12.30;2.73;;;;;;;18.01;100.00;101479.28;7386058;19;20408;-60
2022/08/01 09:45:55;;;;;;;12.87;3.93;;;;;;;18.21;100.00;101482.38;7394714;19;20450;-60
2022/08/01 09:48:28;;;;;;;12.30;2.50;;;;;;;18.26;100.00;101500.72;7386193;19;20414;-61
2022/08/01 09:51:01;;;;;;;10.50;2.33;;;;;;;18.27;100.00;101510.31;7393446;19;20398;-60
2022/08/01 09:53:46;;;;;;;13.60;2.43;;;;;;;18.39;100.00;101513.22;7386164;19;20440;-60
2022/08/01 09:56:22;;;;;;;14.00;3.33;;;;;;;18.36;100.00;101518.38;7393929;19;20415;-59
2022/08/01 09:58:56;;;;;;;8.03;2.40;;;;;;;18.43;100.00;101522.88;7384056;19;20467;-61
2022/08/01 10:01:31;;;;;;;13.13;3.30;;;;;;;18.48;100.00;101518.66;7395747;19;20458;-60
2022/08/01 10:04:11;;;;;;;9.03;2.83;;;;;;;18.55;100.00;101514.41;7385772;19;20402;-59
2022/08/01 10:06:45;;;;;;;8.13;2.60;;;;;;;18.67;100.00;101503.31;7394293;19;20414;-61
2022/08/01 10:09:16;;;;;;;8.70;2.60;;;;;;;18.75;100.00;101500.84;7388965;19;20421;-61
2022/08/01 10:11:45;;;;;;;13.63;2.83;;;;;;;18.94;100.00;101477.69;7395531;19;20384;-61
2022/08/01 10:14:19;;;;;;;14.60;2.90;;;;;;;18.98;100.00;101490.84;7380954;19;20414;-61
2022/08/01 10:16:50;;;;;;;8.93;2.47;;;;;;;19.18;100.00;101511.31;7393918;19;20420;-59
2022/08/01 10:19:25;;;;;;;11.67;2.10;;;;;;;19.20;100.00;101542.69;7387284;19;20422;-61
2022/08/01 10:22:00;;;;;;;10.40;2.40;;;;;;;19.36;100.00;101549.09;7395144;19;20395;-61
2022/08/01 10:24:31;;;;;;;11.80;2.23;;;;;;;19.32;100.00;101534.22;7386699;19;20438;-60
2022/08/01 10:27:05;;;;;;;12.03;3.10;;;;;;;19.42;100.00;101543.97;7393999;19;20846;-62
2022/08/01 10:29:44;;;;;;;12.63;2.37;;;;;;;19.49;100.00;101553.66;7388612;19;20411;-62
2022/08/01 10:32:36;;;;;;;13.70;3.90;;;;;;;19.70;100.00;101541.81;7396091;19;20388;-60
2022/08/01 10:35:14;;;;;;;10.97;2.60;;;;;;;19.88;100.00;101556.06;7385821;19;20940;-61
2022/08/01 10:50:27;;;;;;;7.80;2.47;;;;;;;19.92;100.00;101652.13;7274851;19;2922793;-59
2022/08/01 10:53:10;;;;;;;9.77;2.63;;;;;;;20.05;100.00;101627.94;7426211;19;20201;-62
2022/08/01 10:55:49;;;;;;;20.80;10.03;;;;;;;20.28;100.00;101632.66;7415506;19;20826;-61
2022/08/01 10:58:24;;;;;;;8.53;2.67;;;;;;;20.26;100.00;101665.84;7426683;19;20382;-63
2022/08/01 11:01:32;;;;;;;12.50;2.97;;;;;;;20.49;100.00;101654.81;7428804;19;20397;-59
2022/08/01 11:04:07;;;;;;;9.20;2.63;;;;;;;20.46;100.00;101633.81;7414662;19;20419;-60
2022/08/01 11:06:52;;;;;;;7.13;1.80;;;;;;;20.36;100.00;101594.34;7428096;19;20398;-60
2022/08/01 11:09:29;;;;;;;12.27;5.17;;;;;;;20.37;100.00;101731.50;7425397;19;20441;-60
2022/08/01 11:12:09;;;;;;;13.20;3.83;;;;;;;20.54;100.00;101734.38;7428457;19;20387;-60
2022/08/01 11:15:11;;;;;;;15.40;6.00;;;;;;;20.59;100.00;101727.47;7420832;19;20473;-58
2022/08/01 11:17:47;;;;;;;32.47;11.03;;;;;;;20.73;100.00;101726.81;7414673;19;20384;-60
2022/08/01 11:20:18;;;;;;;13.10;2.40;;;;;;;20.55;100.00;101706.44;7424784;19;21031;-61
2022/08/01 11:23:27;;;;;;;8.97;1.73;;;;;;;20.71;100.00;101718.91;7416218;19;20433;-60
2022/08/01 11:26:16;;;;;;;19.20;4.33;;;;;;;20.83;100.00;101660.53;7427802;19;20708;-61
2022/08/01 11:28:47;;;;;;;10.10;2.03;;;;;;;20.77;100.00;101635.09;7414064;19;20455;-62
2022/08/01 11:31:37;;;;;;;15.57;2.63;;;;;;;20.74;100.00;101576.50;7426605;19;20386;-61
2022/08/01 11:34:08;;;;;;;10.27;2.50;;;;;;;20.89;100.00;101587.22;7419600;19;20450;-61
2022/08/01 11:36:38;;;;;;;19.43;2.57;;;;;;;20.87;100.00;101596.78;7427253;19;20414;-62
2022/08/01 11:39:27;;;;;;;9.67;2.37;;;;;;;20.86;100.00;101602.91;7416751;19;20428;-61
2022/08/01 11:42:20;;;;;;;25.10;8.73;;;;;;;20.84;100.00;101624.69;7427155;19;20387;-62
2022/08/01 11:44:52;;;;;;;17.00;5.97;;;;;;;20.54;100.00;101585.00;7426504;19;20413;-62
2022/08/01 11:47:48;;;;;;;8.07;2.23;;;;;;;20.57;100.00;101640.09;7416791;19;20391;-63
2022/08/01 11:50:34;;;;;;;9.27;2.07;;;;;;;20.69;100.00;101537.13;7412272;19;21012;-56
2022/08/01 11:53:06;;;;;;;17.33;3.10;;;;;;;20.83;100.00;101560.00;7386030;19;20773;-60